Details From MUHA - La Havane Jose Marti Intl
To SVMI - Caracas Simon Bolivar Intl
Flight Number -
Tags Decoded
Created
Modified
Stats Distance 1,168 nm / 2,163 km
Max Altitude 0 ft / 0 m
Waypoints 5
Social Downloads 4
Likes 0
Share VATSIM

Download

Looking for another format? Having issues loading an existing format? Contact us
Advertisement - Login to hide

Notes

Decoded

Route

MUHA UCL VSJ ROMEX SVMI

ID Type Via Altitude Latitude Longitude Leg Dist Tot Dist Heading (true) Name
O MUHA APT - 0 ft / 0 m 22.97863˚ -82.42494˚ - 0 nm - -
UCL NDB - 0 ft / 0 m 21.60417˚ -81.52906˚ 96 nm 96 nm 149° / 149° -
VSJ VOR - 0 ft / 0 m 11.17058˚ -68.41619˚ 980 nm 1076 nm 128° / 131° PUNTA SAN JUAN VOR-DME
ROMEX FIX - 0 ft / 0 m 10.66142˚ -67.39703˚ 67 nm 1144 nm 117° / 117° -
O SVMI APT - 0 ft / 0 m 10.59869˚ -66.99768˚ 23 nm 1168 nm 99° / 99° -

Altitude Profile

Advertisement - Login to hide

Weather


0- 5 10 15 20 25 30 35+ Temperature / ° C

Clouds and Precipitation
Forecast for 2018-05-21 12:00 UTC. Updated 4 minutes ago

Ground ~20,000 ft ~40,000 ft Winds

MUHA

Details ICAO MUHA (HAV)
Name Havana Jose Marti Intl
Region Cuba
Timezone America/Havana (UTC-4.0)
Stats Elevation 209 ft / 64 m (AMSL)
Location 22.989154° -82.409086°
Runways 1
Magnetic Variation 4.959° W

METAR

MUHA 211055Z 05004KT 9000 FEW020TCU BKN040 23/22 Q1014

Decode

TAF

TAF AMD MUHA 210130Z 2102/2200 07005KT 9000 FEW020 BKN040 TEMPO 2102/2106 VRB10KT 3000 TSRA FEW015CB BKN020 BECMG 2113/2115 16011KT TEMPO 2119/2123 3000 TSRA FEW018CB BKN020

Decode

Departure Runways

ID Width Length Bearing (true) Bearing (mag) Surface Threshold Offset Overrun Length
06 148 ft / 45 m 13,133 ft / 4,003 m 54.21° 59.17° Asphalt 0 ft / 0 m 476 ft / 145 m
24 148 ft / 45 m 13,133 ft / 4,003 m 234.23° 239.19° Asphalt 0 ft / 0 m 197 ft / 60 m

SVMI

Details ICAO SVMI (CCS)
Name Caracas Simon Bolivar Intl
Region Venezuela
Timezone America/Caracas (UTC-4.0)
Stats Elevation 235 ft / 72 m (AMSL)
Location 10.603119° -66.990585°
Runways 2
Magnetic Variation 12.327° W

METAR

SVMI 211100Z 09001KT 9999 SCT016 26/23 Q1009

Decode

TAF

Not found

Destination Runways

ID Width Length Bearing (true) Bearing (mag) Surface Threshold Offset Overrun Length
09 145 ft / 44 m 9,825 ft / 2,995 m 75.92° 88.25° Asphalt 0 ft / 0 m 0 ft / 0 m
10 148 ft / 45 m 11,472 ft / 3,497 m 88.14° 100.47° Asphalt 0 ft / 0 m 200 ft / 61 m
27 145 ft / 44 m 9,825 ft / 2,995 m 255.92° 268.25° Asphalt 0 ft / 0 m 0 ft / 0 m
28 148 ft / 45 m 11,472 ft / 3,497 m 268.15° 280.48° Asphalt 0 ft / 0 m 200 ft / 61 m

Approach Navaids

Runway Type Ident Frequency Range Bearing (true) Bearing (mag) Slope Elevation
10 Localiser IMIQ 110.10 MHz 18 nm / 33 km 87.90° 100.23° - 235 ft / 72 m (AMSL)
10 Glidescope IMIQ 110.10 MHz 10 nm / 19 km 88.14° 100.47° 3.00° 235 ft / 72 m (AMSL)
10 DME IMIQ 110.10 MHz 18 nm / 33 km - - - 235 ft / 72 m (AMSL)

Popular Alternatives